sensor_id;sensor_type;location;lat;lon;timestamp;P1;durP1;ratioP1;P2;durP2;ratioP2
28296;SDS011;62078;49.366;8.172;2022-10-28T00:01:03;4.22;;;1.92;;
28296;SDS011;62078;49.366;8.172;2022-10-28T00:03:36;4.57;;;1.90;;
28296;SDS011;62078;49.366;8.172;2022-10-28T00:06:06;4.05;;;1.90;;
28296;SDS011;62078;49.366;8.172;2022-10-28T00:08:36;2.83;;;1.65;;
28296;SDS011;62078;49.366;8.172;2022-10-28T00:11:10;3.63;;;1.67;;
28296;SDS011;62078;49.366;8.172;2022-10-28T00:13:44;5.40;;;2.08;;
28296;SDS011;62078;49.366;8.172;2022-10-28T00:16:12;3.67;;;2.05;;
28296;SDS011;62078;49.366;8.172;2022-10-28T00:18:40;6.13;;;2.30;;
28296;SDS011;62078;49.366;8.172;2022-10-28T00:21:07;5.15;;;2.10;;
28296;SDS011;62078;49.366;8.172;2022-10-28T00:23:36;5.35;;;2.15;;
28296;SDS011;62078;49.366;8.172;2022-10-28T00:26:02;4.10;;;2.00;;
28296;SDS011;62078;49.366;8.172;2022-10-28T00:28:34;4.10;;;1.70;;
28296;SDS011;62078;49.366;8.172;2022-10-28T00:31:04;4.82;;;2.25;;
28296;SDS011;62078;49.366;8.172;2022-10-28T00:33:31;5.05;;;2.10;;
28296;SDS011;62078;49.366;8.172;2022-10-28T00:36:05;3.05;;;1.98;;
28296;SDS011;62078;49.366;8.172;2022-10-28T00:38:32;3.33;;;1.85;;
28296;SDS011;62078;49.366;8.172;2022-10-28T00:40:58;4.63;;;1.92;;
28296;SDS011;62078;49.366;8.172;2022-10-28T00:43:33;4.43;;;1.95;;
28296;SDS011;62078;49.366;8.172;2022-10-28T00:46:01;3.08;;;1.70;;
28296;SDS011;62078;49.366;8.172;2022-10-28T00:48:27;2.63;;;1.50;;
28296;SDS011;62078;49.366;8.172;2022-10-28T00:50:53;4.45;;;1.70;;
28296;SDS011;62078;49.366;8.172;2022-10-28T00:53:24;4.38;;;1.80;;
28296;SDS011;62078;49.366;8.172;2022-10-28T00:55:54;4.07;;;1.95;;
28296;SDS011;62078;49.366;8.172;2022-10-28T00:58:23;4.72;;;1.98;;
28296;SDS011;62078;49.366;8.172;2022-10-28T01:00:50;3.65;;;1.80;;
28296;SDS011;62078;49.366;8.172;2022-10-28T01:03:16;5.55;;;1.67;;
28296;SDS011;62078;49.366;8.172;2022-10-28T01:05:42;4.13;;;1.67;;
28296;SDS011;62078;49.366;8.172;2022-10-28T01:08:11;3.45;;;1.80;;
28296;SDS011;62078;49.366;8.172;2022-10-28T01:18:48;4.72;;;1.67;;
28296;SDS011;62078;49.366;8.172;2022-10-28T01:21:52;2.92;;;1.65;;
28296;SDS011;62078;49.366;8.172;2022-10-28T01:32:33;4.00;;;1.90;;
28296;SDS011;62078;49.366;8.172;2022-10-28T01:40:54;4.00;;;1.73;;
28296;SDS011;62078;49.366;8.172;2022-10-28T01:46:10;4.80;;;2.00;;
28296;SDS011;62078;49.366;8.172;2022-10-28T01:48:51;3.47;;;1.70;;
28296;SDS011;62078;49.366;8.172;2022-10-28T01:51:25;3.17;;;1.70;;
28296;SDS011;62078;49.366;8.172;2022-10-28T01:53:57;4.18;;;1.30;;
28296;SDS011;62078;49.366;8.172;2022-10-28T01:56:32;3.25;;;1.85;;
28296;SDS011;62078;49.366;8.172;2022-10-28T01:59:02;2.72;;;1.60;;
28296;SDS011;62078;49.366;8.172;2022-10-28T02:01:31;4.15;;;1.90;;
28296;SDS011;62078;49.366;8.172;2022-10-28T02:03:58;3.97;;;1.85;;
28296;SDS011;62078;49.366;8.172;2022-10-28T02:06:24;3.88;;;1.70;;
28296;SDS011;62078;49.366;8.172;2022-10-28T02:09:42;3.03;;;1.45;;
28296;SDS011;62078;49.366;8.172;2022-10-28T02:14:29;3.83;;;1.73;;
28296;SDS011;62078;49.366;8.172;2022-10-28T02:22:48;3.92;;;1.48;;
28296;SDS011;62078;49.366;8.172;2022-10-28T02:25:22;2.95;;;1.65;;
28296;SDS011;62078;49.366;8.172;2022-10-28T02:28:04;3.65;;;1.63;;
28296;SDS011;62078;49.366;8.172;2022-10-28T02:30:44;2.90;;;1.52;;
28296;SDS011;62078;49.366;8.172;2022-10-28T02:33:27;3.03;;;1.48;;
28296;SDS011;62078;49.366;8.172;2022-10-28T02:36:32;2.90;;;1.50;;
28296;SDS011;62078;49.366;8.172;2022-10-28T02:38:52;3.63;;;1.48;;
28296;SDS011;62078;49.366;8.172;2022-10-28T02:41:26;4.43;;;2.05;;
28296;SDS011;62078;49.366;8.172;2022-10-28T02:44:07;3.42;;;1.65;;
28296;SDS011;62078;49.366;8.172;2022-10-28T02:46:36;3.20;;;1.75;;
28296;SDS011;62078;49.366;8.172;2022-10-28T02:49:06;4.20;;;1.92;;
28296;SDS011;62078;49.366;8.172;2022-10-28T02:51:36;3.65;;;1.83;;
28296;SDS011;62078;49.366;8.172;2022-10-28T02:54:14;3.75;;;1.67;;
28296;SDS011;62078;49.366;8.172;2022-10-28T02:56:51;3.45;;;1.30;;
28296;SDS011;62078;49.366;8.172;2022-10-28T02:59:17;5.10;;;1.52;;
28296;SDS011;62078;49.366;8.172;2022-10-28T03:01:43;3.53;;;1.70;;
28296;SDS011;62078;49.366;8.172;2022-10-28T03:04:09;3.45;;;1.75;;
28296;SDS011;62078;49.366;8.172;2022-10-28T03:06:34;4.80;;;1.70;;
28296;SDS011;62078;49.366;8.172;2022-10-28T03:09:00;3.88;;;1.67;;
28296;SDS011;62078;49.366;8.172;2022-10-28T03:11:26;3.30;;;1.58;;
28296;SDS011;62078;49.366;8.172;2022-10-28T03:13:51;5.70;;;1.63;;
28296;SDS011;62078;49.366;8.172;2022-10-28T03:16:17;3.47;;;1.80;;
28296;SDS011;62078;49.366;8.172;2022-10-28T03:18:43;3.13;;;1.55;;
28296;SDS011;62078;49.366;8.172;2022-10-28T03:21:08;2.45;;;1.48;;
28296;SDS011;62078;49.366;8.172;2022-10-28T03:23:34;5.75;;;1.80;;
28296;SDS011;62078;49.366;8.172;2022-10-28T03:25:59;8.70;;;1.60;;
28296;SDS011;62078;49.366;8.172;2022-10-28T03:28:25;2.58;;;1.40;;
28296;SDS011;62078;49.366;8.172;2022-10-28T03:30:51;3.42;;;2.03;;
28296;SDS011;62078;49.366;8.172;2022-10-28T03:33:16;9.43;;;2.25;;
28296;SDS011;62078;49.366;8.172;2022-10-28T03:35:43;2.58;;;1.55;;
28296;SDS011;62078;49.366;8.172;2022-10-28T03:38:08;3.25;;;1.58;;
28296;SDS011;62078;49.366;8.172;2022-10-28T03:40:34;3.55;;;1.80;;
28296;SDS011;62078;49.366;8.172;2022-10-28T03:43:00;3.28;;;1.70;;
28296;SDS011;62078;49.366;8.172;2022-10-28T03:45:25;3.40;;;1.40;;
28296;SDS011;62078;49.366;8.172;2022-10-28T03:47:51;4.50;;;1.77;;
28296;SDS011;62078;49.366;8.172;2022-10-28T03:50:17;5.38;;;1.70;;
28296;SDS011;62078;49.366;8.172;2022-10-28T03:52:42;2.70;;;1.65;;
28296;SDS011;62078;49.366;8.172;2022-10-28T03:55:08;2.88;;;1.48;;
28296;SDS011;62078;49.366;8.172;2022-10-28T03:57:34;4.82;;;1.50;;
28296;SDS011;62078;49.366;8.172;2022-10-28T04:00:00;6.45;;;1.88;;
28296;SDS011;62078;49.366;8.172;2022-10-28T04:02:26;3.83;;;1.70;;
28296;SDS011;62078;49.366;8.172;2022-10-28T04:04:52;5.38;;;2.00;;
28296;SDS011;62078;49.366;8.172;2022-10-28T04:07:18;3.80;;;1.60;;
28296;SDS011;62078;49.366;8.172;2022-10-28T04:09:43;4.35;;;1.50;;
28296;SDS011;62078;49.366;8.172;2022-10-28T04:12:09;3.65;;;1.90;;
28296;SDS011;62078;49.366;8.172;2022-10-28T04:14:35;4.95;;;1.67;;
28296;SDS011;62078;49.366;8.172;2022-10-28T04:17:00;5.43;;;1.77;;
28296;SDS011;62078;49.366;8.172;2022-10-28T04:19:26;4.35;;;1.40;;
28296;SDS011;62078;49.366;8.172;2022-10-28T04:21:52;3.45;;;1.52;;
28296;SDS011;62078;49.366;8.172;2022-10-28T04:24:18;4.10;;;1.77;;
28296;SDS011;62078;49.366;8.172;2022-10-28T04:26:43;3.95;;;1.85;;
28296;SDS011;62078;49.366;8.172;2022-10-28T04:29:09;2.45;;;1.30;;
28296;SDS011;62078;49.366;8.172;2022-10-28T04:31:34;3.28;;;1.50;;
28296;SDS011;62078;49.366;8.172;2022-10-28T04:34:00;5.07;;;2.00;;
28296;SDS011;62078;49.366;8.172;2022-10-28T04:36:26;3.38;;;1.58;;
28296;SDS011;62078;49.366;8.172;2022-10-28T04:38:51;6.07;;;1.83;;
28296;SDS011;62078;49.366;8.172;2022-10-28T04:41:17;2.85;;;1.60;;
28296;SDS011;62078;49.366;8.172;2022-10-28T04:43:43;3.75;;;1.45;;
28296;SDS011;62078;49.366;8.172;2022-10-28T04:46:09;4.40;;;1.38;;
28296;SDS011;62078;49.366;8.172;2022-10-28T04:48:35;2.92;;;1.70;;
28296;SDS011;62078;49.366;8.172;2022-10-28T04:51:00;5.20;;;1.48;;
28296;SDS011;62078;49.366;8.172;2022-10-28T04:53:26;3.63;;;1.80;;
28296;SDS011;62078;49.366;8.172;2022-10-28T04:55:55;3.38;;;1.60;;
28296;SDS011;62078;49.366;8.172;2022-10-28T04:58:22;3.65;;;1.90;;
28296;SDS011;62078;49.366;8.172;2022-10-28T05:00:49;3.97;;;1.88;;
28296;SDS011;62078;49.366;8.172;2022-10-28T05:03:14;4.50;;;1.50;;
28296;SDS011;62078;49.366;8.172;2022-10-28T05:05:40;5.32;;;1.70;;
28296;SDS011;62078;49.366;8.172;2022-10-28T05:08:06;4.25;;;1.98;;
28296;SDS011;62078;49.366;8.172;2022-10-28T05:10:31;4.30;;;1.55;;
28296;SDS011;62078;49.366;8.172;2022-10-28T05:12:57;6.35;;;1.70;;
28296;SDS011;62078;49.366;8.172;2022-10-28T05:15:23;5.28;;;1.80;;
28296;SDS011;62078;49.366;8.172;2022-10-28T05:17:50;5.70;;;1.75;;
28296;SDS011;62078;49.366;8.172;2022-10-28T05:20:18;5.22;;;1.80;;
28296;SDS011;62078;49.366;8.172;2022-10-28T05:22:47;5.18;;;1.70;;
28296;SDS011;62078;49.366;8.172;2022-10-28T05:25:14;3.60;;;1.58;;
28296;SDS011;62078;49.366;8.172;2022-10-28T05:27:40;8.35;;;1.90;;
28296;SDS011;62078;49.366;8.172;2022-10-28T05:30:07;3.95;;;1.58;;
28296;SDS011;62078;49.366;8.172;2022-10-28T05:32:33;5.45;;;1.70;;
28296;SDS011;62078;49.366;8.172;2022-10-28T05:34:59;6.05;;;1.80;;
28296;SDS011;62078;49.366;8.172;2022-10-28T05:37:25;7.13;;;2.17;;
28296;SDS011;62078;49.366;8.172;2022-10-28T05:39:51;5.28;;;1.88;;
28296;SDS011;62078;49.366;8.172;2022-10-28T05:42:17;3.42;;;1.65;;
28296;SDS011;62078;49.366;8.172;2022-10-28T05:44:42;6.95;;;1.95;;
28296;SDS011;62078;49.366;8.172;2022-10-28T05:47:08;4.28;;;1.77;;
28296;SDS011;62078;49.366;8.172;2022-10-28T05:49:34;4.47;;;1.67;;
28296;SDS011;62078;49.366;8.172;2022-10-28T05:51:59;4.35;;;1.88;;
28296;SDS011;62078;49.366;8.172;2022-10-28T05:54:25;7.03;;;1.80;;
28296;SDS011;62078;49.366;8.172;2022-10-28T05:56:51;3.25;;;1.60;;
28296;SDS011;62078;49.366;8.172;2022-10-28T05:59:17;5.63;;;1.67;;
28296;SDS011;62078;49.366;8.172;2022-10-28T06:01:42;9.77;;;2.85;;
28296;SDS011;62078;49.366;8.172;2022-10-28T06:04:08;11.63;;;3.63;;
28296;SDS011;62078;49.366;8.172;2022-10-28T06:09:55;11.60;;;3.85;;
28296;SDS011;62078;49.366;8.172;2022-10-28T06:12:21;9.45;;;4.32;;
28296;SDS011;62078;49.366;8.172;2022-10-28T06:14:47;13.48;;;4.20;;
28296;SDS011;62078;49.366;8.172;2022-10-28T06:17:12;10.43;;;4.65;;
28296;SDS011;62078;49.366;8.172;2022-10-28T06:19:38;9.00;;;4.65;;
28296;SDS011;62078;49.366;8.172;2022-10-28T06:22:04;13.70;;;3.97;;
28296;SDS011;62078;49.366;8.172;2022-10-28T06:24:30;10.90;;;3.80;;
28296;SDS011;62078;49.366;8.172;2022-10-28T06:26:56;12.60;;;4.53;;
28296;SDS011;62078;49.366;8.172;2022-10-28T06:29:22;13.95;;;4.38;;
28296;SDS011;62078;49.366;8.172;2022-10-28T06:31:48;12.93;;;4.63;;
28296;SDS011;62078;49.366;8.172;2022-10-28T06:34:13;17.17;;;4.80;;
28296;SDS011;62078;49.366;8.172;2022-10-28T06:36:39;15.90;;;4.35;;
28296;SDS011;62078;49.366;8.172;2022-10-28T06:39:05;13.50;;;4.43;;
28296;SDS011;62078;49.366;8.172;2022-10-28T06:41:31;13.50;;;4.63;;
28296;SDS011;62078;49.366;8.172;2022-10-28T06:43:57;23.88;;;6.22;;
28296;SDS011;62078;49.366;8.172;2022-10-28T06:46:24;23.38;;;5.57;;
28296;SDS011;62078;49.366;8.172;2022-10-28T06:48:49;27.27;;;6.43;;
28296;SDS011;62078;49.366;8.172;2022-10-28T06:51:17;30.33;;;6.25;;
28296;SDS011;62078;49.366;8.172;2022-10-28T06:53:47;20.48;;;6.05;;
28296;SDS011;62078;49.366;8.172;2022-10-28T06:56:14;23.42;;;5.93;;
28296;SDS011;62078;49.366;8.172;2022-10-28T06:58:40;21.55;;;6.10;;
28296;SDS011;62078;49.366;8.172;2022-10-28T07:01:06;21.77;;;5.35;;
28296;SDS011;62078;49.366;8.172;2022-10-28T07:03:32;28.42;;;5.20;;
28296;SDS011;62078;49.366;8.172;2022-10-28T07:05:58;12.77;;;4.95;;
28296;SDS011;62078;49.366;8.172;2022-10-28T07:08:28;13.00;;;4.95;;
28296;SDS011;62078;49.366;8.172;2022-10-28T07:10:54;14.07;;;5.20;;
28296;SDS011;62078;49.366;8.172;2022-10-28T07:13:21;16.67;;;5.45;;
28296;SDS011;62078;49.366;8.172;2022-10-28T07:15:51;13.02;;;5.50;;
28296;SDS011;62078;49.366;8.172;2022-10-28T07:18:21;22.13;;;6.25;;
28296;SDS011;62078;49.366;8.172;2022-10-28T07:20:48;16.13;;;5.82;;
28296;SDS011;62078;49.366;8.172;2022-10-28T07:23:14;17.73;;;5.22;;
28296;SDS011;62078;49.366;8.172;2022-10-28T07:25:40;18.45;;;5.55;;
28296;SDS011;62078;49.366;8.172;2022-10-28T07:28:06;18.05;;;5.10;;
28296;SDS011;62078;49.366;8.172;2022-10-28T07:30:32;14.40;;;5.35;;
28296;SDS011;62078;49.366;8.172;2022-10-28T07:32:58;19.02;;;5.85;;
28296;SDS011;62078;49.366;8.172;2022-10-28T07:35:27;24.40;;;5.72;;
